Terminal Aerodrome Forecast
Issued by NWS

Current Version | Previous Version | Graphics & Text | Print | Product List | Glossary On
Versions: 1 2 3 4 5 6 7 8 9 10 11 12 13 14 15 16 17 18 19 20
000
FTUS41 KPBZ 220500
TAFHLG
TAF
KHLG 220521Z 2206/2306 29005KT P6SM BKN008
     FM221200 28006KT P6SM BKN015
     FM230000 25004KT P6SM BKN035=

USA.gov is the U.S. government's official web portal to all federal, state and local government web resources and services.